Peotone Weather
Station Historical Data
Daily Summary for May 15, 2018 Units:  English    Metric   Both
« Previous Day
Next Day »
Daily Weekly Monthly Yearly Custom
  High: Low: Average:
Temperature: 72.5 °F 50.8 °F 63.8 °F
Dew Point: 66.0 °F 44.4 °F 59.4 °F
Humidity: 97% 71% 86%
Wind Speed: 17.2mph 0.0mph 4.2mph
Wind Gust: 17.2mph - -
Wind- - ESE
Pressure: 30.01 in 29.79 in -
Precipitation: 0.29 in    
Historical Graphs
 
 
Tabular Data for May 15, 2018
Time Temperature Dew Point Pressure Wind Wind Speed Wind Gust Humidity Rainfall Rate (Hourly) solar Conditions
00:00 65.0 °F 62.3 °F 29.82 in Calm   3.5 mph 91% 0.03 in 0.00 W/m2
00:03 64.9 °F 62.5 °F 29.82 in Calm     92% 0.03 in 0.00 W/m2
00:05 64.9 °F 62.5 °F 29.82 in Calm     92% 0.03 in 0.00 W/m2
00:08 64.8 °F 62.4 °F 29.82 in Calm     92% 0.03 in 0.00 W/m2
00:10 64.7 °F 62.6 °F 29.81 in NE 1.1 mph 2.3 mph 93% 0.03 in 0.00 W/m2
00:13 64.7 °F 62.6 °F 29.81 in NE 1.1 mph 3.4 mph 93% 0.03 in 0.00 W/m2
00:15 64.7 °F 62.6 °F 29.81 in Calm   3.5 mph 93% 0.03 in 0.00 W/m2
00:18 64.7 °F 62.6 °F 29.81 in NE 1.1 mph 3.4 mph 93% 0.03 in 0.00 W/m2
00:20 64.6 °F 62.5 °F 29.81 in NE 1.1 mph 3.5 mph 93% 0.03 in 0.00 W/m2
00:23 64.6 °F 62.5 °F 29.80 in Calm   3.4 mph 93% 0.03 in 0.00 W/m2
00:25 64.6 °F 62.5 °F 29.80 in Calm   3.5 mph 93% 0.04 in 0.00 W/m2
00:28 64.5 °F 62.4 °F 29.80 in NE 1.1 mph 4.6 mph 93% 0.04 in 0.00 W/m2
00:30 64.5 °F 62.4 °F 29.79 in NE 3.5 mph 8.1 mph 93% 0.04 in 0.00 W/m2
00:33 64.4 °F 62.3 °F 29.80 in NE 6.9 mph 6.9 mph 93% 0.05 in 0.00 W/m2
00:35 64.3 °F 62.2 °F 29.79 in Calm   6.9 mph 93% 0.05 in 0.00 W/m2
00:38 64.2 °F 62.4 °F 29.79 in NE 6.9 mph 9.2 mph 94% 0.05 in 0.00 W/m2
00:40 64.1 °F 62.3 °F 29.80 in Calm   9.2 mph 94% 0.05 in 0.00 W/m2
00:43 64.1 °F 62.3 °F 29.82 in NNE 2.3 mph 5.8 mph 94% 0.04 in 0.00 W/m2
00:45 64.1 °F 62.3 °F 29.82 in NNE 1.1 mph 5.8 mph 94% 0.04 in 0.00 W/m2
00:48 64.1 °F 62.3 °F 29.82 in NNW 1.1 mph 5.8 mph 94% 0.05 in 0.00 W/m2
00:50 64.1 °F 62.3 °F 29.82 in Calm   5.8 mph 94% 0.05 in 0.00 W/m2
00:54 64.1 °F 62.3 °F 29.83 in NNW 3.4 mph 4.6 mph 94% 0.05 in 0.00 W/m2
00:55 64.1 °F 62.3 °F 29.83 in South 1.1 mph 4.6 mph 94% 0.05 in 0.00 W/m2
00:59 64.1 °F 62.3 °F 29.82 in South 3.4 mph 3.4 mph 94% 0.04 in 0.00 W/m2
01:00 64.1 °F 62.3 °F 29.82 in ESE 1.1 mph 4.6 mph 94% 0.04 in 0.00 W/m2
01:04 64.1 °F 62.3 °F 29.82 in ENE 3.4 mph 3.4 mph 94% 0.03 in 0.00 W/m2
01:05 64.2 °F 62.7 °F 29.82 in NNE 4.6 mph 5.8 mph 95% 0.03 in 0.00 W/m2
01:09 64.1 °F 62.6 °F 29.82 in NNE 2.3 mph 4.6 mph 95% 0.03 in 0.00 W/m2
01:10 64.1 °F 62.6 °F 29.82 in Calm   4.6 mph 95% 0.04 in 0.00 W/m2
01:14 64.1 °F 62.6 °F 29.82 in Calm   1.1 mph 95% 0.04 in 0.00 W/m2
01:15 64.0 °F 62.5 °F 29.82 in Calm   1.1 mph 95% 0.05 in 0.00 W/m2
01:19 64.0 °F 62.5 °F 29.83 in Calm     95% 0.05 in 0.00 W/m2
01:20 64.0 °F 62.5 °F 29.83 in Calm     95% 0.06 in 0.00 W/m2
01:24 64.0 °F 62.5 °F 29.83 in Calm     95% 0.06 in 0.00 W/m2
01:25 64.0 °F 62.5 °F 29.83 in Calm     95% 0.07 in 0.00 W/m2
01:29 63.9 °F 62.4 °F 29.83 in Calm     95% 0.07 in 0.00 W/m2
01:30 63.9 °F 62.4 °F 29.82 in Calm     95% 0.07 in 0.00 W/m2
01:34 63.9 °F 62.4 °F 29.81 in NNE 1.1 mph 2.3 mph 95% 0.08 in 0.00 W/m2
01:35 63.9 °F 62.4 °F 29.81 in Calm   2.3 mph 95% 0.08 in 0.00 W/m2
01:39 63.9 °F 62.4 °F 29.81 in NNE 3.4 mph 5.8 mph 95% 0.08 in 0.00 W/m2
01:40 63.9 °F 62.4 °F 29.81 in North 4.6 mph 5.8 mph 95% 0.08 in 0.00 W/m2
01:44 63.7 °F 62.2 °F 29.81 in Calm   4.6 mph 95% 0.09 in 0.00 W/m2
01:45 63.7 °F 62.2 °F 29.81 in North 1.1 mph 4.6 mph 95% 0.09 in 0.00 W/m2
01:50 63.8 °F 62.3 °F 29.82 in North 3.4 mph 3.4 mph 95% 0.09 in 0.00 W/m2
01:55 63.9 °F 62.7 °F 29.82 in SSE 4.6 mph 6.9 mph 96% 0.09 in 0.00 W/m2
02:00 63.9 °F 62.7 °F 29.82 in SE 9.2 mph 10.3 mph 96% 0.10 in 0.00 W/m2
02:05 63.5 °F 62.0 °F 29.83 in SE 4.6 mph 9.2 mph 95% 0.10 in 0.00 W/m2
02:10 63.4 °F 62.0 °F 29.82 in SE 3.4 mph 4.6 mph 95% 0.10 in 0.00 W/m2
02:15 63.4 °F 62.0 °F 29.82 in Calm   4.6 mph 95% 0.09 in 0.00 W/m2
02:20 63.3 °F 61.8 °F 29.82 in SSE 8.1 mph 9.2 mph 95% 0.08 in 0.00 W/m2
02:25 63.4 °F 62.2 °F 29.83 in SSE 4.6 mph 8.1 mph 96% 0.07 in 0.00 W/m2
02:30 63.4 °F 62.2 °F 29.83 in SSE 3.4 mph 9.2 mph 96% 0.06 in 0.00 W/m2
02:35 63.4 °F 62.0 °F 29.83 in South 5.8 mph 6.9 mph 95% 0.05 in 0.00 W/m2
02:40 63.5 °F 62.0 °F 29.84 in South 2.3 mph 5.8 mph 95% 0.04 in 0.00 W/m2
02:45 63.3 °F 61.8 °F 29.82 in SSE 2.3 mph 4.6 mph 95% 0.03 in 0.00 W/m2
02:50 63.3 °F 61.8 °F 29.82 in Calm   4.6 mph 95% 0.02 in 0.00 W/m2
02:55 63.4 °F 62.0 °F 29.83 in SSE 4.6 mph 4.6 mph 95% 0.02 in 0.00 W/m2
03:03 63.5 °F 62.0 °F 29.83 in Calm     95% 0.00 in 0.00 W/m2
03:08 63.4 °F 62.0 °F 29.83 in SSE 3.4 mph 5.8 mph 95% 0.01 in 0.00 W/m2
03:13 63.4 °F 62.0 °F 29.83 in Calm   4.6 mph 95% 0.01 in 0.00 W/m2
03:18 63.4 °F 62.0 °F 29.83 in SSE 3.4 mph 4.6 mph 95% 0.01 in 0.00 W/m2
03:23 63.3 °F 61.8 °F 29.82 in SSE 2.3 mph 5.8 mph 95% 0.01 in 0.00 W/m2
03:28 63.2 °F 61.8 °F 29.82 in SE 1.1 mph 5.8 mph 95% 0.01 in 0.00 W/m2
03:33 63.2 °F 61.8 °F 29.82 in Calm   3.4 mph 95% 0.01 in 0.00 W/m2
03:39 63.3 °F 61.8 °F 29.83 in Calm   3.4 mph 95% 0.01 in 0.00 W/m2
03:44 63.4 °F 62.0 °F 29.84 in SE 1.1 mph 5.8 mph 95% 0.01 in 0.00 W/m2
03:49 63.6 °F 62.2 °F 29.84 in SE 3.4 mph 4.6 mph 95% 0.01 in 0.00 W/m2
03:54 63.6 °F 62.2 °F 29.84 in Calm   2.3 mph 95% 0.03 in 0.00 W/m2
03:59 63.6 °F 62.2 °F 29.84 in SE 1.1 mph 2.3 mph 95% 0.03 in 0.00 W/m2
04:04 63.6 °F 62.2 °F 29.84 in SE 3.4 mph 5.8 mph 95% 0.03 in 0.00 W/m2
04:09 63.4 °F 62.0 °F 29.84 in SE 2.3 mph 4.6 mph 95% 0.03 in 0.00 W/m2
04:14 63.5 °F 62.0 °F 29.84 in SE 3.4 mph 4.6 mph 95% 0.02 in 0.00 W/m2
04:19 63.7 °F 62.5 °F 29.84 in SE 2.3 mph 4.6 mph 96% 0.02 in 0.00 W/m2
04:24 63.7 °F 62.2 °F 29.84 in South 1.1 mph 6.9 mph 95% 0.02 in 0.00 W/m2
04:29 63.7 °F 62.2 °F 29.83 in South 3.4 mph 4.6 mph 95% 0.02 in 0.00 W/m2
04:34 63.8 °F 62.6 °F 29.83 in South 2.3 mph 3.4 mph 96% 0.03 in 0.00 W/m2
04:40 63.8 °F 62.6 °F 29.83 in South 2.3 mph 2.3 mph 96% 0.03 in 0.00 W/m2
04:45 63.8 °F 62.6 °F 29.84 in South 2.3 mph 3.4 mph 96% 0.03 in 0.00 W/m2
04:50 63.9 °F 62.7 °F 29.84 in Calm   3.4 mph 96% 0.03 in 0.00 W/m2
04:55 63.9 °F 62.7 °F 29.85 in South 3.4 mph 4.6 mph 96% 0.03 in 0.00 W/m2
05:00 63.9 °F 62.7 °F 29.85 in SSW 5.8 mph 5.8 mph 96% 0.01 in 0.00 W/m2
05:05 64.0 °F 62.8 °F 29.85 in SSW 1.1 mph 5.8 mph 96% 0.01 in 0.00 W/m2
05:10 63.9 °F 62.7 °F 29.85 in SSW 1.1 mph 4.6 mph 96% 0.03 in 0.00 W/m2
05:15 63.9 °F 62.7 °F 29.85 in Calm   3.4 mph 96% 0.05 in 0.00 W/m2
05:20 63.8 °F 62.6 °F 29.85 in Calm     96% 0.05 in 0.00 W/m2
05:25 63.7 °F 62.5 °F 29.85 in Calm     96% 0.06 in 0.00 W/m2
05:30 63.6 °F 62.4 °F 29.85 in Calm     96% 0.07 in 0.00 W/m2
05:35 63.7 °F 62.5 °F 29.86 in SSW 2.3 mph 2.3 mph 96% 0.07 in 0.00 W/m2
05:41 63.9 °F 62.7 °F 29.86 in SSW 3.4 mph 3.4 mph 96% 0.08 in 0.00 W/m2
05:46 63.8 °F 62.6 °F 29.86 in Calm     96% 0.08 in 0.00 W/m2
05:51 63.8 °F 62.6 °F 29.86 in SSW 2.3 mph 3.4 mph 96% 0.09 in 0.00 W/m2
05:56 63.7 °F 62.5 °F 29.86 in Calm     96% 0.10 in 7.00 W/m2
06:01 63.8 °F 62.6 °F 29.87 in Calm     96% 0.10 in 5.00 W/m2
06:06 63.9 °F 62.7 °F 29.88 in SSW 2.3 mph 3.4 mph 96% 0.10 in 0.00 W/m2
06:11 63.9 °F 62.7 °F 29.88 in Calm     96% 0.09 in 0.00 W/m2
06:16 63.8 °F 62.6 °F 29.87 in Calm     96% 0.07 in 0.00 W/m2
06:21 63.8 °F 62.6 °F 29.87 in Calm     96% 0.07 in 5.00 W/m2
06:27 63.7 °F 62.5 °F 29.86 in Calm     96% 0.06 in 7.00 W/m2
06:32 63.7 °F 62.8 °F 29.86 in Calm     97% 0.05 in 12.00 W/m2
06:37 63.7 °F 62.5 °F 29.86 in Calm     96% 0.04 in 28.00 W/m2
06:42 63.8 °F 62.9 °F 29.86 in Calm     97% 0.03 in 46.00 W/m2
06:47 64.0 °F 63.1 °F 29.86 in Calm     97% 0.03 in 58.00 W/m2
06:52 64.2 °F 63.3 °F 29.86 in Calm     97% 0.03 in 74.00 W/m2
06:57 64.5 °F 63.6 °F 29.87 in South 2.3 mph 2.3 mph 97% 0.02 in 86.00 W/m2
07:02 64.7 °F 63.8 °F 29.87 in Calm   2.3 mph 97% 0.02 in 67.00 W/m2
07:07 64.6 °F 63.7 °F 29.88 in Calm     97% 0.02 in 70.00 W/m2
07:12 64.7 °F 63.8 °F 29.88 in Calm     97% 0.01 in 139.00 W/m2
07:18 65.0 °F 64.1 °F 29.88 in Calm     97% 0.01 in 171.00 W/m2
07:23 65.4 °F 64.5 °F 29.87 in Calm     97% 0.01 in 267.00 W/m2
07:28 65.5 °F 64.6 °F 29.87 in Calm     97% 0.01 in 104.00 W/m2
07:33 65.5 °F 64.6 °F 29.87 in Calm     97% 0.01 in 86.00 W/m2
07:38 65.7 °F 64.8 °F 29.88 in South 2.3 mph 2.3 mph 97% 0.01 in 105.00 W/m2
07:43 65.6 °F 64.7 °F 29.88 in WSW 2.3 mph 4.6 mph 97% 0.01 in 69.00 W/m2
07:48 65.8 °F 64.9 °F 29.88 in NNW 4.6 mph 8.1 mph 97% 0.01 in 114.00 W/m2
07:53 66.1 °F 65.2 °F 29.89 in NNW 3.4 mph 8.1 mph 97% 0.00 in 102.00 W/m2
07:58 66.3 °F 65.4 °F 29.89 in NNW 5.8 mph 8.1 mph 97% 0.00 in 123.00 W/m2
08:03 66.5 °F 65.6 °F 29.90 in NNW 2.3 mph 6.9 mph 97% 0.00 in 104.00 W/m2
08:08 66.5 °F 65.6 °F 29.90 in NNW 4.6 mph 6.9 mph 97% 0.00 in 46.00 W/m2
08:14 66.5 °F 65.6 °F 29.90 in North 3.4 mph 12.6 mph 97% 0.00 in 46.00 W/m2
08:19 66.4 °F 65.5 °F 29.90 in NNW 9.2 mph 10.3 mph 97% 0.00 in 72.00 W/m2
08:24 66.5 °F 65.6 °F 29.90 in NW 5.8 mph 9.2 mph 97% 0.00 in 62.00 W/m2
08:29 66.5 °F 65.6 °F 29.90 in North 11.5 mph 11.5 mph 97% 0.00 in 102.00 W/m2
08:34 66.3 °F 65.1 °F 29.90 in NNE 6.9 mph 10.3 mph 96% 0.00 in 93.00 W/m2
08:39 66.3 °F 65.1 °F 29.90 in North 5.8 mph 11.5 mph 96% 0.00 in 302.00 W/m2
08:44 66.9 °F 66.0 °F 29.91 in NE 8.1 mph 14.9 mph 97% 0.00 in 209.00 W/m2
08:49 66.9 °F 65.7 °F 29.91 in NNE 4.6 mph 10.3 mph 96% 0.00 in 165.00 W/m2
08:54 66.8 °F 65.6 °F 29.91 in NNE 14.9 mph 14.9 mph 96% 0.00 in 141.00 W/m2
08:59 66.1 °F 64.6 °F 29.91 in NE 3.4 mph 13.8 mph 95% 0.00 in 218.00 W/m2
09:04 65.8 °F 64.3 °F 29.91 in NNE 5.8 mph 14.9 mph 95% 0.00 in 279.00 W/m2
09:09 65.9 °F 64.4 °F 29.91 in NE 2.3 mph 14.9 mph 95% 0.00 in 469.00 W/m2
09:14 66.1 °F 64.6 °F 29.91 in Calm   9.2 mph 95% 0.00 in 424.00 W/m2
09:20 66.6 °F 65.1 °F 29.91 in NE 8.1 mph 11.5 mph 95% 0.00 in 397.00 W/m2
09:25 66.5 °F 64.7 °F 29.92 in NNE 2.3 mph 9.2 mph 94% 0.00 in 378.00 W/m2
09:30 66.8 °F 64.7 °F 29.92 in NE 3.4 mph 9.2 mph 93% 0.00 in 341.00 W/m2
09:35 66.7 °F 64.3 °F 29.92 in NNE 5.8 mph 9.2 mph 92% 0.00 in 302.00 W/m2
09:40 66.8 °F 64.4 °F 29.93 in North 5.8 mph 10.3 mph 92% 0.00 in 302.00 W/m2
09:45 67.4 °F 65.0 °F 29.93 in NNW 9.2 mph 11.5 mph 92% 0.00 in 371.00 W/m2
09:50 67.7 °F 65.0 °F 29.93 in NNW 8.1 mph 13.8 mph 91% 0.00 in 362.00 W/m2
09:55 67.7 °F 64.7 °F 29.93 in NNE 11.5 mph 14.9 mph 90% 0.00 in 413.00 W/m2
10:00 67.7 °F 64.3 °F 29.94 in North 17.2 mph 17.2 mph 89% 0.00 in 533.00 W/m2
10:05 67.3 °F 63.3 °F 29.94 in NNE 14.9 mph 17.2 mph 87% 0.00 in 418.00 W/m2
10:10 67.5 °F 63.8 °F 29.95 in NNW 4.6 mph 8.1 mph 88% 0.00 in 448.00 W/m2
10:15 67.7 °F 63.7 °F 29.95 in NW 11.5 mph 11.5 mph 87% 0.00 in 367.00 W/m2
10:21 67.3 °F 63.3 °F 29.95 in NNE 11.5 mph 12.6 mph 87% 0.00 in 425.00 W/m2
10:26 66.8 °F 62.8 °F 29.95 in North 4.6 mph 8.1 mph 87% 0.00 in 381.00 W/m2
10:31 66.8 °F 62.8 °F 29.95 in North 5.8 mph 5.8 mph 87% 0.00 in 387.00 W/m2
10:36 66.8 °F 63.1 °F 29.96 in NE 6.9 mph 9.2 mph 88% 0.00 in 431.00 W/m2
10:41 66.9 °F 62.6 °F 29.96 in NNE 5.8 mph 10.3 mph 86% 0.00 in 438.00 W/m2
10:46 67.5 °F 63.2 °F 29.96 in NNE 4.6 mph 6.9 mph 86% 0.00 in 441.00 W/m2
10:51 67.5 °F 62.8 °F 29.97 in NE 4.6 mph 11.5 mph 85% 0.00 in 338.00 W/m2
10:56 67.3 °F 63.0 °F 29.97 in NE 5.8 mph 12.6 mph 86% 0.00 in 308.00 W/m2
11:01 67.0 °F 62.0 °F 29.97 in NW 8.1 mph 8.1 mph 84% 0.00 in 285.00 W/m2
11:06 66.6 °F 61.6 °F 29.96 in ENE 4.6 mph 6.9 mph 84% 0.00 in 265.00 W/m2
11:11 66.5 °F 61.9 °F 29.96 in NE 6.9 mph 12.6 mph 85% 0.00 in 271.00 W/m2
11:16 66.5 °F 61.9 °F 29.96 in NNE 8.1 mph 12.6 mph 85% 0.00 in 295.00 W/m2
11:21 66.8 °F 62.2 °F 29.97 in NE 5.8 mph 8.1 mph 85% 0.00 in 338.00 W/m2
11:27 67.3 °F 62.3 °F 29.96 in NNE 9.2 mph 11.5 mph 84% 0.00 in 371.00 W/m2
11:32 67.3 °F 62.3 °F 29.95 in NE 2.3 mph 10.3 mph 84% 0.00 in 313.00 W/m2
11:37 67.5 °F 62.2 °F 29.94 in ENE 9.2 mph 16.1 mph 83% 0.00 in 267.00 W/m2
11:42 67.2 °F 61.9 °F 29.95 in NE 2.3 mph 9.2 mph 83% 0.00 in 309.00 W/m2
11:47 67.5 °F 62.2 °F 29.95 in NNE 4.6 mph 9.2 mph 83% 0.00 in 364.00 W/m2
11:52 68.1 °F 63.1 °F 29.95 in Calm   11.5 mph 84% 0.00 in 432.00 W/m2
11:57 68.3 °F 61.5 °F 29.95 in ENE 9.2 mph 13.8 mph 79% 0.00 in 431.00 W/m2
12:02 68.1 °F 61.0 °F 29.97 in NE 8.1 mph 13.8 mph 78% 0.00 in 517.00 W/m2
12:07 69.2 °F 62.4 °F 29.98 in NNE 8.1 mph 9.2 mph 79% 0.00 in 680.00 W/m2
12:12 70.9 °F 63.3 °F 29.98 in NNE 4.6 mph 11.5 mph 77% 0.00 in 1158.00 W/m2
12:17 71.7 °F 63.0 °F 29.97 in ENE 2.3 mph 8.1 mph 74% 0.00 in 722.00 W/m2
12:22 71.0 °F 63.4 °F 29.98 in NNW 5.8 mph 6.9 mph 77% 0.00 in 490.00 W/m2
12:28 70.8 °F 63.2 °F 29.98 in NE 2.3 mph 6.9 mph 77% 0.00 in 485.00 W/m2
12:33 70.3 °F 62.0 °F 29.98 in NNE 4.6 mph 9.2 mph 75% 0.00 in 429.00 W/m2
12:38 69.8 °F 61.9 °F 29.98 in ENE 3.4 mph 11.5 mph 76% 0.00 in 406.00 W/m2
12:43 69.3 °F 61.0 °F 29.98 in NNE 9.2 mph 13.8 mph 75% 0.00 in 364.00 W/m2
12:48 68.9 °F 61.0 °F 29.98 in NNE 5.8 mph 8.1 mph 76% 0.00 in 431.00 W/m2
12:53 69.3 °F 61.0 °F 29.98 in NE 1.1 mph 10.3 mph 75% 0.00 in 635.00 W/m2
12:58 70.1 °F 60.7 °F 29.98 in NE 10.3 mph 11.5 mph 72% 0.00 in 592.00 W/m2
13:03 70.5 °F 61.4 °F 29.98 in NE 6.9 mph 12.6 mph 73% 0.00 in 744.00 W/m2
13:08 71.6 °F 62.9 °F 29.99 in NNE 3.4 mph 9.2 mph 74% 0.00 in 522.00 W/m2
13:13 71.9 °F 62.0 °F 29.99 in NNE 3.4 mph 12.6 mph 71% 0.00 in 976.00 W/m2
13:18 71.3 °F 62.2 °F 29.99 in ENE 2.3 mph 12.6 mph 73% 0.00 in 496.00 W/m2
13:23 70.5 °F 61.0 °F 29.98 in NNE 4.6 mph 11.5 mph 72% 0.00 in 492.00 W/m2
13:28 71.8 °F 63.5 °F 29.99 in NE 1.1 mph 13.8 mph 75% 0.00 in 492.00 W/m2
13:34 72.4 °F 62.9 °F 29.99 in NNE 4.6 mph 11.5 mph 72% 0.00 in 946.00 W/m2
13:39 72.5 °F 63.0 °F 29.98 in East 3.4 mph 14.9 mph 72% 0.00 in 726.00 W/m2
13:44 72.0 °F 62.1 °F 29.99 in NNE 6.9 mph 12.6 mph 71% 0.00 in 895.00 W/m2
13:49 72.2 °F 63.1 °F 29.98 in NNE 6.9 mph 13.8 mph 73% 0.00 in 357.00 W/m2
13:54 70.6 °F 62.3 °F 29.98 in ENE 4.6 mph 11.5 mph 75% 0.00 in 207.00 W/m2
13:59 70.7 °F 62.8 °F 29.98 in NE 10.3 mph 13.8 mph 76% 0.00 in 241.00 W/m2
14:04 70.1 °F 61.4 °F 29.98 in NE 11.5 mph 16.1 mph 74% 0.00 in 199.00 W/m2
14:09 69.3 °F 60.3 °F 29.98 in ENE 8.1 mph 17.2 mph 73% 0.00 in 262.00 W/m2
14:14 69.1 °F 61.2 °F 29.98 in NNE 1.1 mph 12.6 mph 76% 0.00 in 299.00 W/m2
14:19 69.1 °F 61.2 °F 29.98 in NNE 8.1 mph 17.2 mph 76% 0.00 in 316.00 W/m2
14:24 68.9 °F 60.3 °F 29.98 in NNE 10.3 mph 16.1 mph 74% 0.00 in 325.00 W/m2
14:29 68.8 °F 60.6 °F 29.98 in NNE 4.6 mph 14.9 mph 75% 0.00 in 360.00 W/m2
14:34 69.2 °F 61.7 °F 29.97 in North 4.6 mph 16.1 mph 77% 0.00 in 374.00 W/m2
14:40 69.3 °F 61.0 °F 29.97 in NNE 9.2 mph 13.8 mph 75% 0.00 in 441.00 W/m2
14:45 69.6 °F 61.3 °F 29.97 in NNE 4.6 mph 16.1 mph 75% 0.00 in 392.00 W/m2
14:50 69.4 °F 61.9 °F 29.97 in NE 5.8 mph 16.1 mph 77% 0.00 in 371.00 W/m2
14:55 68.8 °F 60.2 °F 29.97 in NE 3.4 mph 14.9 mph 74% 0.00 in 350.00 W/m2
15:00 68.5 °F 60.6 °F 29.97 in NE 5.8 mph 16.1 mph 76% 0.00 in 294.00 W/m2
15:05 68.8 °F 61.3 °F 29.97 in NE 10.3 mph 11.5 mph 77% 0.00 in 272.00 W/m2
15:10 68.4 °F 60.5 °F 29.96 in NNE 9.2 mph 16.1 mph 76% 0.00 in 253.00 W/m2
15:15 67.9 °F 60.1 °F 29.96 in NE 16.1 mph 17.2 mph 76% 0.00 in 230.00 W/m2
15:20 67.4 °F 60.3 °F 29.96 in ENE 4.6 mph 14.9 mph 78% 0.00 in 227.00 W/m2
15:25 67.4 °F 60.7 °F 29.97 in NNE 5.8 mph 17.2 mph 79% 0.00 in 234.00 W/m2
15:30 67.3 °F 60.6 °F 29.97 in NNE 4.6 mph 16.1 mph 79% 0.00 in 253.00 W/m2
15:35 67.1 °F 60.0 °F 29.97 in NNE 14.9 mph 14.9 mph 78% 0.00 in 241.00 W/m2
15:40 66.8 °F 60.1 °F 29.97 in NNE 5.8 mph 16.1 mph 79% 0.00 in 202.00 W/m2
15:45 66.7 °F 60.0 °F 29.97 in NNE 6.9 mph 9.2 mph 79% 0.00 in 181.00 W/m2
15:50 66.7 °F 60.3 °F 29.97 in NE 2.3 mph 2.3 mph 80% 0.00 in 188.00 W/m2
15:55 67.0 °F 60.3 °F 29.97 in NNE 5.8 mph 5.8 mph 79% 0.00 in 202.00 W/m2
16:00 66.9 °F 60.5 °F 29.97 in North 6.9 mph 6.9 mph 80% 0.00 in 216.00 W/m2
16:06 66.9 °F 60.2 °F 29.97 in NE 2.3 mph 9.2 mph 79% 0.00 in 211.00 W/m2
16:11 66.8 °F 60.8 °F 29.97 in NNW 5.8 mph 9.2 mph 81% 0.00 in 213.00 W/m2
16:16 66.7 °F 60.7 °F 29.97 in North 3.4 mph 4.6 mph 81% 0.00 in 220.00 W/m2
16:21 66.8 °F 60.8 °F 29.97 in North 9.2 mph 9.2 mph 81% 0.00 in 236.00 W/m2
16:26 66.9 °F 60.9 °F 29.97 in NE 6.9 mph 10.3 mph 81% 0.00 in 237.00 W/m2
16:31 67.1 °F 61.1 °F 29.97 in NNW 3.4 mph 9.2 mph 81% 0.00 in 274.00 W/m2
16:36 67.5 °F 61.1 °F 29.97 in NE 3.4 mph 9.2 mph 80% 0.00 in 515.00 W/m2
16:41 68.3 °F 61.2 °F 29.97 in NNE 6.9 mph 8.1 mph 78% 0.00 in 638.00 W/m2
16:46 69.2 °F 61.7 °F 29.97 in NW 3.4 mph 12.6 mph 77% 0.00 in 394.00 W/m2
16:51 69.9 °F 63.1 °F 29.97 in NNW 8.1 mph 9.2 mph 79% 0.00 in 680.00 W/m2
16:56 70.3 °F 61.6 °F 29.97 in NNW 3.4 mph 14.9 mph 74% 0.00 in 717.00 W/m2
17:01 69.7 °F 61.4 °F 29.97 in NNW 5.8 mph 11.5 mph 75% 0.00 in 612.00 W/m2
17:07 70.2 °F 61.5 °F 29.97 in North 11.5 mph 13.8 mph 74% 0.00 in 355.00 W/m2
17:12 70.1 °F 61.4 °F 29.97 in NNW 5.8 mph 11.5 mph 74% 0.00 in 459.00 W/m2
17:17 70.1 °F 61.4 °F 29.97 in NNW 9.2 mph 10.3 mph 74% 0.00 in 339.00 W/m2
17:22 69.0 °F 60.4 °F 29.97 in North 8.1 mph 11.5 mph 74% 0.00 in 248.00 W/m2
17:27 67.9 °F 59.7 °F 29.97 in NNE 1.1 mph 9.2 mph 75% 0.00 in 213.00 W/m2
17:32 67.4 °F 60.0 °F 29.97 in NNW 4.6 mph 11.5 mph 77% 0.00 in 199.00 W/m2
17:37 67.4 °F 60.0 °F 29.97 in NNE 2.3 mph 5.8 mph 77% 0.00 in 199.00 W/m2
17:42 67.3 °F 60.2 °F 29.97 in NE 2.3 mph 11.5 mph 78% 0.00 in 197.00 W/m2
17:47 67.1 °F 59.7 °F 29.97 in North 8.1 mph 11.5 mph 77% 0.00 in 172.00 W/m2
17:52 66.6 °F 59.5 °F 29.96 in North 9.2 mph 10.3 mph 78% 0.00 in 139.00 W/m2
17:57 66.2 °F 59.2 °F 29.96 in North 6.9 mph 9.2 mph 78% 0.00 in 135.00 W/m2
18:02 65.4 °F 58.4 °F 29.96 in NNW 5.8 mph 9.2 mph 78% 0.00 in 139.00 W/m2
18:07 65.0 °F 58.0 °F 29.96 in North 4.6 mph 13.8 mph 78% 0.00 in 146.00 W/m2
18:13 64.7 °F 57.7 °F 29.96 in NW 6.9 mph 10.3 mph 78% 0.00 in 171.00 W/m2
18:18 64.5 °F 57.5 °F 29.96 in NNW 8.1 mph 10.3 mph 78% 0.00 in 181.00 W/m2
18:23 64.4 °F 57.4 °F 29.96 in NNE 9.2 mph 9.2 mph 78% 0.00 in 142.00 W/m2
18:28 64.2 °F 57.6 °F 29.97 in NNE 3.4 mph 10.3 mph 79% 0.00 in 127.00 W/m2
18:33 63.7 °F 56.4 °F 29.96 in North 9.2 mph 11.5 mph 77% 0.00 in 144.00 W/m2
18:38 63.8 °F 56.5 °F 29.96 in North 5.8 mph 12.6 mph 77% 0.00 in 137.00 W/m2
18:43 63.5 °F 55.4 °F 29.96 in NE 14.9 mph 16.1 mph 75% 0.00 in 116.00 W/m2
18:48 63.4 °F 55.3 °F 29.96 in Calm   9.2 mph 75% 0.00 in 100.00 W/m2
18:53 63.2 °F 55.2 °F 29.96 in NE 4.6 mph 12.6 mph 75% 0.00 in 84.00 W/m2
18:58 62.9 °F 54.9 °F 29.96 in North 1.1 mph 9.2 mph 75% 0.00 in 90.00 W/m2
19:03 62.8 °F 55.1 °F 29.96 in North 9.2 mph 10.3 mph 76% 0.00 in 84.00 W/m2
19:08 62.5 °F 54.8 °F 29.96 in North 5.8 mph 8.1 mph 76% 0.00 in 74.00 W/m2
19:13 62.1 °F 54.5 °F 29.97 in NE 4.6 mph 12.6 mph 76% 0.00 in 63.00 W/m2
19:19 61.7 °F 54.1 °F 29.97 in NNE 4.6 mph 10.3 mph 76% 0.00 in 56.00 W/m2
19:24 61.3 °F 53.7 °F 29.97 in North 5.8 mph 10.3 mph 76% 0.00 in 47.00 W/m2
19:29 61.0 °F 53.4 °F 29.97 in NNE 3.4 mph 10.3 mph 76% 0.00 in 37.00 W/m2
19:34 60.7 °F 53.1 °F 29.97 in NNE 4.6 mph 10.3 mph 76% 0.00 in 28.00 W/m2
19:39 60.4 °F 53.2 °F 29.97 in NE 2.3 mph 5.8 mph 77% 0.00 in 21.00 W/m2
19:44 60.0 °F 53.1 °F 29.98 in NE 3.4 mph 8.1 mph 78% 0.00 in 18.00 W/m2
19:49 59.5 °F 52.3 °F 29.97 in ENE 3.4 mph 11.5 mph 77% 0.00 in 14.00 W/m2
19:54 58.9 °F 51.7 °F 29.97 in NNE 5.8 mph 10.3 mph 77% 0.00 in 9.00 W/m2
19:59 58.4 °F 51.2 °F 29.98 in NNE 2.3 mph 6.9 mph 77% 0.00 in 5.00 W/m2
20:04 57.8 °F 50.7 °F 29.98 in ENE 1.1 mph 9.2 mph 77% 0.00 in 5.00 W/m2
20:09 57.3 °F 50.5 °F 29.98 in NE 5.8 mph 9.2 mph 78% 0.00 in 0.00 W/m2
20:14 56.6 °F 49.5 °F 29.98 in NE 8.1 mph 12.6 mph 77% 0.00 in 0.00 W/m2
20:20 56.1 °F 49.0 °F 29.98 in NNE 9.2 mph 12.6 mph 77% 0.00 in 0.00 W/m2
20:25 55.7 °F 48.6 °F 29.98 in NE 3.4 mph 9.2 mph 77% 0.00 in 0.00 W/m2
20:30 55.3 °F 48.6 °F 29.98 in NE 5.8 mph 6.9 mph 78% 0.00 in 0.00 W/m2
20:35 55.0 °F 48.3 °F 29.98 in NE 4.6 mph 11.5 mph 78% 0.00 in 0.00 W/m2
20:40 54.7 °F 48.0 °F 29.98 in North 5.8 mph 11.5 mph 78% 0.00 in 0.00 W/m2
20:45 54.4 °F 47.7 °F 29.98 in North 3.4 mph 10.3 mph 78% 0.00 in 0.00 W/m2
20:50 54.1 °F 47.7 °F 29.98 in North 2.3 mph 9.2 mph 79% 0.00 in 0.00 W/m2
20:55 54.0 °F 48.0 °F 29.99 in NNE 3.4 mph 10.3 mph 80% 0.00 in 0.00 W/m2
21:00 54.1 °F 47.7 °F 29.99 in NNE 1.1 mph 10.3 mph 79% 0.00 in 0.00 W/m2
21:05 54.3 °F 47.6 °F 29.99 in North 4.6 mph 9.2 mph 78% 0.00 in 0.00 W/m2
21:10 54.3 °F 47.2 °F 29.99 in NNE 6.9 mph 10.3 mph 77% 0.00 in 0.00 W/m2
21:15 54.1 °F 47.1 °F 30.00 in NNE 6.9 mph 12.6 mph 77% 0.00 in 0.00 W/m2
21:20 53.7 °F 46.7 °F 30.00 in NE 4.6 mph 12.6 mph 77% 0.00 in 0.00 W/m2
21:25 53.4 °F 46.7 °F 30.00 in North 10.3 mph 10.3 mph 78% 0.00 in 0.00 W/m2
21:30 53.2 °F 46.5 °F 30.01 in NNE 5.8 mph 6.9 mph 78% 0.00 in 0.00 W/m2
21:36 53.0 °F 46.7 °F 30.01 in NNE 2.3 mph 4.6 mph 79% 0.00 in 0.00 W/m2
21:41 52.8 °F 46.8 °F 30.01 in NNE 3.4 mph 3.4 mph 80% 0.00 in 0.00 W/m2
21:46 52.7 °F 46.7 °F 30.01 in North 6.9 mph 10.3 mph 80% 0.00 in 0.00 W/m2
21:51 52.7 °F 46.0 °F 30.01 in NE 4.6 mph 9.2 mph 78% 0.00 in 0.00 W/m2
21:56 52.6 °F 46.0 °F 30.01 in NE 12.6 mph 12.6 mph 78% 0.00 in 0.00 W/m2
22:01 52.5 °F 45.8 °F 30.01 in NNE 3.4 mph 8.1 mph 78% 0.00 in 0.00 W/m2
22:06 52.3 °F 45.7 °F 30.01 in NE 6.9 mph 9.2 mph 78% 0.00 in 0.00 W/m2
22:11 52.2 °F 45.6 °F 30.01 in NNE 8.1 mph 10.3 mph 78% 0.00 in 0.00 W/m2
22:16 52.2 °F 45.2 °F 30.01 in North 3.4 mph 6.9 mph 77% 0.00 in 0.00 W/m2
22:21 52.1 °F 45.1 °F 30.01 in NE 8.1 mph 8.1 mph 77% 0.00 in 0.00 W/m2
22:26 52.0 °F 45.4 °F 30.01 in North 5.8 mph 5.8 mph 78% 0.00 in 0.00 W/m2
22:31 51.8 °F 45.2 °F 30.01 in NNE 5.8 mph 10.3 mph 78% 0.00 in 0.00 W/m2
22:37 51.8 °F 44.8 °F 30.01 in NE 3.4 mph 9.2 mph 77% 0.00 in 0.00 W/m2
22:42 51.8 °F 44.8 °F 30.01 in ENE 3.4 mph 6.9 mph 77% 0.00 in 0.00 W/m2
22:47 51.7 °F 45.1 °F 30.01 in North 3.4 mph 8.1 mph 78% 0.00 in 0.00 W/m2
22:52 51.6 °F 45.0 °F 30.01 in North 5.8 mph 9.2 mph 78% 0.00 in 0.00 W/m2
22:57 51.5 °F 44.5 °F 30.01 in North 6.9 mph 8.1 mph 77% 0.00 in 0.00 W/m2
23:02 51.5 °F 44.5 °F 30.00 in Calm   9.2 mph 77% 0.00 in 0.00 W/m2
23:07 51.4 °F 44.8 °F 30.01 in NE 3.4 mph 9.2 mph 78% 0.00 in 0.00 W/m2
23:12 51.4 °F 44.8 °F 30.01 in NE 5.8 mph 5.8 mph 78% 0.00 in 0.00 W/m2
23:17 51.3 °F 44.7 °F 30.01 in NNE 2.3 mph 8.1 mph 78% 0.00 in 0.00 W/m2
23:22 51.2 °F 44.6 °F 30.01 in NNE 4.6 mph 9.2 mph 78% 0.00 in 0.00 W/m2
23:27 51.1 °F 44.5 °F 30.01 in NNE 5.8 mph 8.1 mph 78% 0.00 in 0.00 W/m2
23:32 51.0 °F 44.4 °F 30.01 in North 2.3 mph 4.6 mph 78% 0.00 in 0.00 W/m2
23:37 50.9 °F 44.6 °F 30.01 in NNE 1.1 mph 9.2 mph 79% 0.00 in 0.00 W/m2
23:43 50.8 °F 44.9 °F 30.00 in NNE 3.4 mph 5.8 mph 80% 0.00 in 0.00 W/m2
23:48 50.9 °F 44.6 °F 30.00 in ENE 4.6 mph 8.1 mph 79% 0.00 in 0.00 W/m2
23:53 50.9 °F 44.6 °F 30.00 in NNE 3.4 mph 9.2 mph 79% 0.00 in 0.00 W/m2
23:58 50.9 °F 44.6 °F 30.00 in North 6.9 mph 6.9 mph 79% 0.00 in 0.00 W/m2
Juneau County Weather
Compliments of Weather Underground - 4 mb